Time;durP1;ratioP1;P1;durP2;ratioP2;P2;SDS_P1;SDS_P2;PMS_P1;PMS_P2;Temp;Humidity;BMP_temperature;BMP_pressure;BME280_temperature;BME280_humidity;BME280_pressure;Samples;Min_cycle;Max_cycle;Signal;HPM_P1;HPM_P2
2021/01/29 03:45:47;;;;;;;3.85;3.20;;;8.50;81.30;;;;;;5496927;24;20059;-73
2021/01/29 03:48:50;;;;;;;5.10;3.70;;;8.60;80.90;;;;;;4763558;30;20451;-73
2021/01/29 03:51:37;;;;;;;6.25;4.18;;;8.60;81.00;;;;;;4764303;30;20046;-74
2021/01/29 03:54:34;;;;;;;5.43;3.92;;;8.60;80.90;;;;;;4751062;30;20300;-74
2021/01/29 03:57:21;;;;;;;6.57;4.38;;;8.60;81.10;;;;;;4764093;30;20059;-74
2021/01/29 04:00:21;;;;;;;6.00;4.25;;;8.70;81.30;;;;;;4750580;30;20051;-74
2021/01/29 04:03:46;;;;;;;7.20;4.45;;;8.70;81.20;;;;;;4750717;30;20093;-74
2021/01/29 04:06:40;;;;;;;7.53;5.03;;;8.60;81.20;;;;;;4715203;30;20111;-74
2021/01/29 04:09:45;;;;;;;6.60;4.63;;;8.70;81.20;;;;;;4714747;30;20096;-74
2021/01/29 04:12:52;;;;;;;6.22;4.63;;;8.70;80.90;;;;;;4712636;30;20037;-74
2021/01/29 04:15:38;;;;;;;4.55;3.22;;;8.70;80.90;;;;;;4727001;30;20085;-75
2021/01/29 04:18:10;;;;;;;6.03;3.90;;;8.70;80.30;;;;;;4712155;30;20049;-74
2021/01/29 04:20:50;;;;;;;6.95;4.50;;;8.70;80.40;;;;;;4712572;30;20041;-75
2021/01/29 04:23:25;;;;;;;6.03;4.70;;;8.80;80.40;;;;;;4712259;30;20045;-75
2021/01/29 04:25:59;;;;;;;6.43;4.78;;;8.80;80.20;;;;;;4711859;30;20029;-74
2021/01/29 04:28:29;;;;;;;7.45;5.38;;;8.80;80.20;;;;;;4729963;30;20036;-74
2021/01/29 04:30:59;;;;;;;5.65;4.40;;;8.80;80.10;;;;;;4744127;30;20055;-74
2021/01/29 04:33:33;;;;;;;7.00;5.35;;;8.80;80.30;;;;;;4729590;30;20040;-75
2021/01/29 04:36:02;;;;;;;8.32;5.88;;;8.70;80.50;;;;;;4729440;30;20044;-75
2021/01/29 04:39:06;;;;;;;7.82;5.05;;;8.70;80.70;;;;;;4729504;30;20040;-75
2021/01/29 04:41:31;;;;;;;6.60;4.90;;;8.70;80.90;;;;;;4726504;30;20045;-74
2021/01/29 04:44:00;;;;;;;7.07;4.70;;;8.70;80.80;;;;;;4711753;30;20087;-75
2021/01/29 04:46:53;;;;;;;6.50;5.20;;;8.60;81.40;;;;;;4721392;30;20341;-74
2021/01/29 04:49:40;;;;;;;6.93;4.90;;;8.40;81.80;;;;;;4694850;30;20038;-74
2021/01/29 04:52:35;;;;;;;6.65;4.93;;;8.40;82.20;;;;;;4694721;30;20355;-74
2021/01/29 04:55:34;;;;;;;7.88;5.32;;;8.30;82.50;;;;;;4694372;30;20030;-73
2021/01/29 04:58:14;;;;;;;7.93;5.53;;;8.30;82.80;;;;;;4694492;30;20296;-73
2021/01/29 05:01:38;;;;;;;7.88;5.38;;;8.20;82.90;;;;;;4662647;30;20315;-73
2021/01/29 05:04:43;;;;;;;10.35;6.18;;;8.20;83.00;;;;;;4674358;30;20041;-73
2021/01/29 05:07:49;;;;;;;;;;;8.10;83.30;;;;;;4674743;30;20058;-73
2021/01/29 05:10:34;;;;;;;6.03;4.30;;;8.00;83.60;;;;;;4673980;30;19911;-73
2021/01/29 05:13:18;;;;;;;6.68;4.22;;;7.90;83.80;;;;;;4674040;30;20516;-73
2021/01/29 05:16:20;;;;;;;4.55;3.50;;;7.90;83.70;;;;;;4659592;30;20041;-72
2021/01/29 05:19:07;;;;;;;7.05;4.47;;;7.80;84.00;;;;;;4691159;30;20108;-73
2021/01/29 05:21:42;;;;;;;7.28;3.90;;;7.80;84.10;;;;;;4691182;30;20034;-73
2021/01/29 05:24:19;;;;;;;6.20;4.13;;;7.90;83.40;;;;;;4676520;30;20273;-73
2021/01/29 05:27:11;;;;;;;5.32;3.97;;;7.90;83.10;;;;;;4691032;30;20030;-73
2021/01/29 05:30:00;;;;;;;6.50;3.60;;;7.90;83.30;;;;;;4691152;30;20034;-73
2021/01/29 05:32:58;;;;;;;9.85;4.30;;;7.90;82.70;;;;;;4690929;30;20050;-73
2021/01/29 05:35:33;;;;;;;6.07;4.20;;;8.00;82.60;;;;;;4691127;30;20046;-72
2021/01/29 05:38:27;;;;;;;4.97;4.30;;;8.10;82.30;;;;;;4700465;30;20336;-73
2021/01/29 05:41:19;;;;;;;6.28;4.70;;;8.10;82.00;;;;;;4745025;30;20138;-72
2021/01/29 05:43:54;;;;;;;7.90;5.05;;;8.20;81.70;;;;;;4745007;30;20093;-73
2021/01/29 05:46:45;;;;;;;6.25;4.90;;;8.20;81.60;;;;;;4746251;30;20379;-73
2021/01/29 05:49:26;;;;;;;8.90;5.25;;;8.10;82.00;;;;;;4762499;30;20032;-73
2021/01/29 05:51:55;;;;;;;9.20;4.57;;;8.10;82.10;;;;;;4746616;30;20316;-73
2021/01/29 05:54:30;;;;;;;6.65;5.43;;;8.20;82.00;;;;;;4762488;30;20040;-72
2021/01/29 05:57:34;;;;;;;8.20;6.13;;;8.20;81.90;;;;;;4746560;30;20028;-72
2021/01/29 06:00:10;;;;;;;7.03;5.35;;;8.20;82.00;;;;;;4707841;30;20053;-72
2021/01/29 06:03:04;;;;;;;7.97;5.10;;;8.20;82.00;;;;;;4712208;30;20036;-73
2021/01/29 06:05:35;;;;;;;22.48;13.60;;;8.20;82.10;;;;;;4693426;30;20038;-73
2021/01/29 06:08:39;;;;;;;26.65;16.10;;;8.20;82.10;;;;;;4693468;30;20033;-73
2021/01/29 06:11:46;;;;;;;25.38;14.73;;;8.20;82.20;;;;;;4713260;30;20059;-72
2021/01/29 06:14:50;;;;;;;26.17;15.77;;;8.30;81.90;;;;;;4666248;30;20041;-73
2021/01/29 06:17:28;;;;;;;28.83;16.42;;;8.30;81.60;;;;;;4668213;30;20054;-73
2021/01/29 06:20:03;;;;;;;15.95;9.70;;;8.40;81.40;;;;;;4675522;30;20076;-73
2021/01/29 06:22:59;;;;;;;15.35;9.05;;;8.40;81.40;;;;;;4667258;30;20048;-73
2021/01/29 06:25:37;;;;;;;10.98;7.78;;;8.40;81.30;;;;;;4681744;30;20594;-73
2021/01/29 06:28:36;;;;;;;12.13;7.72;;;8.50;81.00;;;;;;4682517;30;20030;-73
2021/01/29 06:31:37;;;;;;;11.65;8.45;;;8.50;81.00;;;;;;4667954;30;20325;-72
2021/01/29 06:34:32;;;;;;;12.35;8.88;;;8.50;80.70;;;;;;4677133;30;20046;-73
2021/01/29 06:37:15;;;;;;;12.90;9.00;;;8.40;81.00;;;;;;4691065;30;20113;-73
2021/01/29 06:40:14;;;;;;;25.45;14.50;;;8.50;81.10;;;;;;4696103;30;20034;-73
2021/01/29 06:43:26;;;;;;;39.08;17.98;;;8.40;81.40;;;;;;4696006;30;20148;-73
2021/01/29 06:46:19;;;;;;;33.88;17.33;;;8.40;81.70;;;;;;4699130;30;20069;-73
2021/01/29 06:49:05;;;;;;;25.52;13.25;;;8.40;81.70;;;;;;4700957;30;20032;-73
2021/01/29 06:51:49;;;;;;;22.50;12.50;;;8.40;81.80;;;;;;4753223;30;20207;-72
2021/01/29 06:54:54;;;;;;;17.38;11.38;;;8.40;81.70;;;;;;4771398;30;20024;-72
2021/01/29 06:57:47;;;;;;;22.52;11.77;;;8.40;81.90;;;;;;4773764;30;20283;-73
2021/01/29 07:00:36;;;;;;;20.25;12.23;;;8.50;81.90;;;;;;4753439;30;20236;-72
2021/01/29 07:03:29;;;;;;;31.63;13.43;;;8.40;81.90;;;;;;4757251;30;20036;-73
2021/01/29 07:06:16;;;;;;;26.10;14.57;;;8.50;82.10;;;;;;4774991;30;20060;-73
2021/01/29 07:09:01;;;;;;;36.13;19.25;;;8.50;82.20;;;;;;4768898;30;20063;-73
2021/01/29 07:12:02;;;;;;;23.90;15.02;;;8.50;82.20;;;;;;4768057;30;20034;-73
2021/01/29 07:14:49;;;;;;;19.13;12.73;;;8.30;82.70;;;;;;4771997;30;20032;-73
2021/01/29 07:17:46;;;;;;;22.95;11.65;;;8.30;83.00;;;;;;4738884;30;20311;-73
2021/01/29 07:20:47;;;;;;;16.15;11.18;;;8.30;83.30;;;;;;4769718;30;20024;-73
2021/01/29 07:23:40;;;;;;;20.60;12.77;;;8.20;83.60;;;;;;4757110;30;20055;-72
2021/01/29 07:26:33;;;;;;;21.27;12.82;;;8.20;83.50;;;;;;4754253;30;20040;-73
2021/01/29 07:29:09;;;;;;;19.27;13.07;;;8.30;83.50;;;;;;4771356;30;20024;-73
2021/01/29 07:31:55;;;;;;;20.50;12.10;;;8.20;83.40;;;;;;4773716;30;20056;-73
2021/01/29 07:34:37;;;;;;;20.05;12.15;;;8.20;83.70;;;;;;4758730;30;20090;-73
2021/01/29 07:37:44;;;;;;;24.30;13.05;;;8.20;83.60;;;;;;4754524;30;20092;-72
2021/01/29 07:40:15;;;;;;;22.10;13.75;;;8.20;83.70;;;;;;4715650;30;20029;-72
2021/01/29 07:42:50;;;;;;;24.33;14.25;;;8.30;83.50;;;;;;4715125;30;20049;-73
2021/01/29 07:45:41;;;;;;;24.85;15.77;;;8.40;83.30;;;;;;4719718;30;20068;-73
2021/01/29 07:48:37;;;;;;;25.48;16.98;;;8.30;83.30;;;;;;4699654;30;20038;-73
2021/01/29 07:51:13;;;;;;;22.10;15.00;;;8.30;83.50;;;;;;4698399;30;20033;-73
2021/01/29 07:53:49;;;;;;;36.58;18.40;;;8.30;83.30;;;;;;4702644;30;20053;-72
2021/01/29 07:56:44;;;;;;;26.13;17.13;;;8.40;83.30;;;;;;4700458;30;20042;-73
2021/01/29 07:59:45;;;;;;;28.77;17.58;;;8.40;83.30;;;;;;4702187;30;20038;-73
2021/01/29 08:02:33;;;;;;;27.55;15.75;;;8.50;83.30;;;;;;4696221;30;20135;-73
2021/01/29 08:05:18;;;;;;;23.63;16.73;;;8.50;83.00;;;;;;4692508;30;20057;-74
2021/01/29 08:07:51;;;;;;;25.45;18.20;;;8.50;82.90;;;;;;4664160;30;20046;-74
2021/01/29 08:10:26;;;;;;;28.27;17.08;;;8.50;82.80;;;;;;4702950;30;20060;-74
2021/01/29 08:13:13;;;;;;;26.13;17.40;;;8.50;82.90;;;;;;4687925;30;20050;-74
2021/01/29 08:15:47;;;;;;;25.13;16.95;;;8.50;82.90;;;;;;4715397;30;20043;-74
2021/01/29 08:18:31;;;;;;;24.58;17.60;;;8.60;82.70;;;;;;4687560;30;20151;-75
2021/01/29 08:21:33;;;;;;;23.23;16.25;;;8.60;82.60;;;;;;4705520;30;20320;-75
2021/01/29 08:24:26;;;;;;;22.52;15.52;;;8.60;82.60;;;;;;4720463;30;20041;-76
2021/01/29 08:27:39;;;;;;;20.58;14.10;;;8.60;82.50;;;;;;4735601;30;20032;-75
2021/01/29 08:30:53;;;;;;;26.40;16.42;;;8.60;82.50;;;;;;4757162;30;20035;-74
2021/01/29 08:34:03;;;;;;;23.83;16.00;;;8.60;82.60;;;;;;4724798;30;20037;-74
2021/01/29 08:37:13;;;;;;;24.42;16.48;;;8.70;82.70;;;;;;4712089;30;20116;-74
2021/01/29 08:39:47;;;;;;;26.67;16.48;;;8.70;82.80;;;;;;4677129;30;20149;-74
2021/01/29 08:42:48;;;;;;;29.52;17.00;;;8.70;82.50;;;;;;4691644;30;20250;-74
2021/01/29 08:45:42;;;;;;;26.00;17.15;;;8.70;83.00;;;;;;4691287;30;20066;-74
2021/01/29 08:48:14;;;;;;;23.48;15.68;;;8.70;83.10;;;;;;4691313;30;20077;-74
2021/01/29 08:51:09;;;;;;;24.52;17.63;;;8.60;83.20;;;;;;4691405;30;20372;-75
2021/01/29 08:53:35;;;;;;;26.30;16.92;;;8.50;83.70;;;;;;4691093;30;20046;-76
2021/01/29 08:56:18;;;;;;;23.88;16.83;;;8.50;83.80;;;;;;4691290;30;20278;-75
2021/01/29 08:59:06;;;;;;;26.35;16.55;;;8.50;83.90;;;;;;4676933;30;20206;-76
2021/01/29 09:01:49;;;;;;;32.55;17.88;;;8.50;83.90;;;;;;4662685;30;20052;-76
2021/01/29 09:04:31;;;;;;;33.28;20.17;;;8.50;84.00;;;;;;4691146;30;20065;-75
2021/01/29 09:07:01;;;;;;;33.20;17.83;;;8.50;84.30;;;;;;4682146;30;20037;-76
2021/01/29 09:09:30;;;;;;;36.10;20.35;;;8.60;84.10;;;;;;4690493;30;20121;-76
2021/01/29 09:12:01;;;;;;;31.80;19.23;;;8.60;84.10;;;;;;4686495;30;20175;-75
2021/01/29 09:14:38;;;;;;;30.50;17.98;;;8.60;84.30;;;;;;4694809;30;20045;-75
2021/01/29 09:17:08;;;;;;;26.17;16.30;;;8.60;84.30;;;;;;4722338;30;20056;-75
2021/01/29 09:19:37;;;;;;;24.73;16.48;;;8.70;84.30;;;;;;4721413;30;20036;-76
2021/01/29 09:22:27;;;;;;;28.25;17.73;;;8.70;84.00;;;;;;4725843;30;20056;-75
2021/01/29 09:24:59;;;;;;;40.47;21.60;;;8.70;84.10;;;;;;4721289;30;20356;-76
2021/01/29 09:27:51;;;;;;;34.40;18.60;;;8.70;84.00;;;;;;4708452;30;20278;-76
2021/01/29 09:30:34;;;;;;;40.72;22.10;;;8.80;83.80;;;;;;4689556;30;20053;-75
2021/01/29 09:33:48;;;;;;;44.92;23.35;;;8.80;83.70;;;;;;4717026;30;20075;-76
2021/01/29 09:36:20;;;;;;;33.88;19.95;;;8.90;84.10;;;;;;4717554;30;20049;-76
2021/01/29 09:38:57;;;;;;;36.90;19.60;;;8.90;84.00;;;;;;4693515;30;20327;-75
2021/01/29 09:41:28;;;;;;;;;;;8.90;84.10;;;;;;4722679;30;20124;-76
2021/01/29 09:43:57;;;;;;;31.48;18.98;;;8.90;84.20;;;;;;4733501;30;19915;-76
2021/01/29 09:46:35;;;;;;;29.20;17.92;;;8.90;84.00;;;;;;4717171;30;20076;-76
2021/01/29 09:49:05;;;;;;;33.65;21.30;;;9.00;84.00;;;;;;4703812;30;20045;-75
2021/01/29 09:52:00;;;;;;;30.98;18.85;;;9.00;84.00;;;;;;4707544;30;20048;-75
2021/01/29 09:54:29;;;;;;;33.70;19.45;;;8.90;84.60;;;;;;4692707;30;20391;-75
2021/01/29 09:57:11;;;;;;;35.85;19.75;;;8.90;84.50;;;;;;4706829;30;20048;-75
2021/01/29 09:59:46;;;;;;;32.08;20.90;;;9.00;84.50;;;;;;4697474;30;20048;-75
2021/01/29 10:02:14;;;;;;;33.28;19.60;;;9.00;84.30;;;;;;4697095;30;20368;-75
2021/01/29 10:05:10;;;;;;;33.17;18.27;;;9.00;84.40;;;;;;4716696;30;20060;-75
2021/01/29 10:07:42;;;;;;;34.13;20.35;;;9.10;84.30;;;;;;4730073;30;20032;-74
2021/01/29 10:10:26;;;;;;;29.25;19.63;;;9.10;84.00;;;;;;4749450;30;20043;-75
2021/01/29 10:13:16;;;;;;;30.70;18.60;;;9.20;83.90;;;;;;4742585;30;20048;-74
2021/01/29 10:15:45;;;;;;;30.33;19.67;;;9.10;83.80;;;;;;4739385;30;20052;-74
2021/01/29 10:18:20;;;;;;;28.38;18.50;;;9.20;83.70;;;;;;4735150;30;20063;-74
2021/01/29 10:20:46;;;;;;;26.25;15.98;;;9.20;83.90;;;;;;4747823;30;20044;-75
2021/01/29 10:23:29;;;;;;;25.95;15.45;;;9.10;84.40;;;;;;4747129;30;20306;-76
2021/01/29 10:26:13;;;;;;;23.38;15.98;;;9.10;84.70;;;;;;4753472;30;20055;-75
2021/01/29 10:29:09;;;;;;;34.35;16.73;;;9.10;84.80;;;;;;4738745;30;20110;-74
2021/01/29 10:31:44;;;;;;;23.75;14.73;;;9.00;85.50;;;;;;4747783;30;20102;-74
2021/01/29 10:34:42;;;;;;;24.52;14.68;;;9.00;86.00;;;;;;4744322;30;20028;-74
2021/01/29 10:37:22;;;;;;;28.17;15.23;;;9.00;86.10;;;;;;4728115;30;20041;-74
2021/01/29 10:40:23;;;;;;;30.98;17.38;;;8.90;86.50;;;;;;4743690;30;20036;-74
2021/01/29 10:43:07;;;;;;;27.48;15.80;;;8.90;87.00;;;;;;4744364;30;20033;-74
2021/01/29 10:45:53;;;;;;;27.98;15.52;;;8.90;86.70;;;;;;4749361;30;20041;-74
2021/01/29 10:48:38;;;;;;;27.67;15.95;;;8.80;87.10;;;;;;4768606;30;20052;-74
2021/01/29 10:51:29;;;;;;;23.13;14.73;;;8.70;87.30;;;;;;4765785;30;20052;-74
2021/01/29 10:54:01;;;;;;;25.83;15.43;;;8.80;87.20;;;;;;4689882;30;20388;-74
2021/01/29 10:56:42;;;;;;;28.38;16.83;;;8.80;86.90;;;;;;4682367;30;20049;-74
2021/01/29 10:59:15;;;;;;;29.85;18.65;;;8.80;87.00;;;;;;4668187;30;20487;-74
2021/01/29 11:01:58;;;;;;;31.15;17.60;;;8.90;86.80;;;;;;4685700;30;20038;-74
2021/01/29 11:04:33;;;;;;;28.15;17.40;;;8.90;86.70;;;;;;4692988;30;20060;-74
2021/01/29 11:07:28;;;;;;;29.02;17.45;;;8.80;86.90;;;;;;4689640;30;20041;-75
2021/01/29 11:10:14;;;;;;;26.90;16.60;;;8.80;87.00;;;;;;4689474;30;20030;-75
2021/01/29 11:13:09;;;;;;;28.57;18.17;;;8.80;87.50;;;;;;4690619;30;20061;-75
2021/01/29 11:15:50;;;;;;;41.53;22.13;;;8.80;87.60;;;;;;4685702;30;20040;-75
2021/01/29 11:18:30;;;;;;;31.50;20.02;;;8.90;87.00;;;;;;4689803;30;20057;-75
2021/01/29 11:21:35;;;;;;;40.38;21.75;;;9.00;86.50;;;;;;4675520;30;20092;-74
2021/01/29 11:24:18;;;;;;;34.17;20.08;;;8.90;87.10;;;;;;4689009;30;20116;-75
2021/01/29 11:26:53;;;;;;;32.42;18.88;;;8.90;87.30;;;;;;4676238;30;20038;-74
2021/01/29 11:29:35;;;;;;;34.35;18.65;;;9.00;87.50;;;;;;4677085;30;20339;-74
2021/01/29 11:32:26;;;;;;;32.38;19.90;;;8.90;87.70;;;;;;4745909;30;20099;-74
2021/01/29 11:35:29;;;;;;;28.38;18.25;;;9.00;87.70;;;;;;4729734;30;20032;-74
2021/01/29 11:37:54;;;;;;;27.17;17.27;;;9.00;88.00;;;;;;4751058;30;20308;-74
2021/01/29 11:40:52;;;;;;;30.10;17.48;;;8.90;88.40;;;;;;4746626;30;20088;-74
2021/01/29 11:43:31;;;;;;;30.35;16.88;;;9.10;87.90;;;;;;4753684;30;20097;-75
2021/01/29 11:46:10;;;;;;;27.77;17.88;;;8.90;88.30;;;;;;4764149;30;20040;-75
2021/01/29 11:48:51;;;;;;;38.70;18.85;;;9.00;88.20;;;;;;4748844;30;20358;-74
2021/01/29 11:51:44;;;;;;;30.70;18.05;;;9.10;87.90;;;;;;4764400;30;20035;-74
2021/01/29 11:54:31;;;;;;;32.88;20.38;;;9.10;87.90;;;;;;4764395;30;20032;-74
2021/01/29 11:57:08;;;;;;;33.15;19.48;;;9.00;88.20;;;;;;4748564;30;20196;-74
2021/01/29 11:59:50;;;;;;;33.60;20.40;;;8.80;89.20;;;;;;4764483;30;20039;-75
2021/01/29 12:02:23;;;;;;;36.22;20.00;;;8.90;89.30;;;;;;4764282;30;20024;-75
2021/01/29 12:05:29;;;;;;;41.15;22.33;;;9.00;89.00;;;;;;4746921;30;20099;-75
2021/01/29 12:08:06;;;;;;;;;;;9.00;89.00;;;;;;4747909;30;20041;-75
2021/01/29 12:10:51;;;;;;;38.28;21.45;;;8.90;89.00;;;;;;4753982;30;19910;-74
2021/01/29 12:13:26;;;;;;;40.25;23.00;;;9.10;88.90;;;;;;4751277;30;20107;-75
2021/01/29 12:15:59;;;;;;;38.70;21.80;;;9.00;88.90;;;;;;4763877;30;20051;-75
2021/01/29 12:18:29;;;;;;;39.28;22.25;;;8.90;88.10;;;;;;4764041;30;20036;-74
2021/01/29 12:21:07;;;;;;;40.05;22.13;;;8.80;87.90;;;;;;4763925;30;20166;-75
2021/01/29 12:23:39;;;;;;;34.80;20.77;;;8.80;88.10;;;;;;4732883;30;20036;-74
2021/01/29 12:26:06;;;;;;;36.85;23.50;;;8.70;88.20;;;;;;4745227;30;20074;-75
2021/01/29 12:28:50;;;;;;;39.88;23.65;;;8.60;88.40;;;;;;4759926;30;20028;-75
2021/01/29 12:31:19;;;;;;;32.70;21.00;;;8.60;88.70;;;;;;4763421;30;20040;-74
2021/01/29 12:33:56;;;;;;;31.58;19.55;;;8.60;89.00;;;;;;4754909;30;20039;-74
2021/01/29 12:36:26;;;;;;;35.33;19.98;;;8.70;88.60;;;;;;4755352;30;20040;-74
2021/01/29 12:39:08;;;;;;;33.30;19.63;;;8.60;88.60;;;;;;4733151;30;20036;-74
2021/01/29 12:41:47;;;;;;;35.63;19.35;;;8.60;88.30;;;;;;4732982;30;20028;-73
2021/01/29 12:44:24;;;;;;;34.13;20.55;;;8.50;88.90;;;;;;4743495;30;20103;-73
2021/01/29 12:46:52;;;;;;;;;;;8.70;88.70;;;;;;4742352;30;20248;-76
2021/01/29 12:49:44;;;;;;;28.70;18.40;;;8.80;88.40;;;;;;4762954;30;19910;-73
2021/01/29 12:52:22;;;;;;;31.27;18.08;;;9.00;87.60;;;;;;4711354;30;20101;-74
2021/01/29 12:54:56;;;;;;;29.15;18.48;;;9.00;87.70;;;;;;4708788;30;20483;-74
2021/01/29 12:57:31;;;;;;;29.77;17.38;;;9.10;87.70;;;;;;4708983;30;20056;-73
2021/01/29 13:00:27;;;;;;;30.30;18.23;;;9.20;86.90;;;;;;4726001;30;20052;-74
2021/01/29 13:03:12;;;;;;;32.25;19.98;;;9.30;86.40;;;;;;4711048;30;20205;-73
2021/01/29 13:06:02;;;;;;;31.17;19.25;;;9.40;86.40;;;;;;4711923;30;20208;-73
2021/01/29 13:08:40;;;;;;;33.50;18.73;;;9.50;85.90;;;;;;4695052;30;20037;-73
2021/01/29 13:11:23;;;;;;;30.63;19.20;;;9.50;85.80;;;;;;4713680;30;20313;-73
2021/01/29 13:14:15;;;;;;;31.27;18.83;;;9.60;85.60;;;;;;4704390;30;20041;-73
2021/01/29 13:17:07;;;;;;;34.00;19.20;;;9.70;85.20;;;;;;4726098;30;20296;-73
2021/01/29 13:19:38;;;;;;;33.08;19.70;;;9.70;85.00;;;;;;4711313;30;20128;-73
2021/01/29 13:22:35;;;;;;;29.20;17.75;;;9.70;85.20;;;;;;4711257;30;20049;-73
2021/01/29 13:25:14;;;;;;;27.85;16.73;;;9.60;85.20;;;;;;4726515;30;20084;-73
2021/01/29 13:28:07;;;;;;;27.75;17.73;;;9.50;85.50;;;;;;4711352;30;20428;-73
2021/01/29 13:30:38;;;;;;;28.23;17.90;;;9.50;85.40;;;;;;4762656;30;20028;-72
2021/01/29 13:33:37;;;;;;;29.52;18.63;;;9.50;85.30;;;;;;4731813;30;20107;-73
2021/01/29 13:36:07;;;;;;;26.75;16.83;;;9.60;85.60;;;;;;4690926;30;20060;-73
2021/01/29 13:38:40;;;;;;;28.15;17.13;;;9.60;85.60;;;;;;4690963;30;20050;-73
2021/01/29 13:41:12;;;;;;;29.63;18.55;;;9.60;85.60;;;;;;4690339;30;20132;-73
2021/01/29 13:43:41;;;;;;;29.92;17.63;;;9.60;86.00;;;;;;4662082;30;20038;-73
2021/01/29 13:46:32;;;;;;;28.77;16.08;;;9.60;86.10;;;;;;4689967;30;20306;-73
2021/01/29 13:49:30;;;;;;;29.17;17.02;;;9.70;86.40;;;;;;4690230;30;20037;-73
2021/01/29 13:51:57;;;;;;;27.10;17.40;;;9.90;85.70;;;;;;4674362;30;20061;-73
2021/01/29 13:54:41;;;;;;;29.35;18.38;;;9.90;85.80;;;;;;4690258;30;20042;-73
2021/01/29 13:57:13;;;;;;;29.15;19.73;;;9.90;85.80;;;;;;4690630;30;20042;-73
2021/01/29 13:59:43;;;;;;;32.40;19.17;;;10.00;85.90;;;;;;4689910;30;20053;-73
2021/01/29 14:02:20;;;;;;;36.72;21.02;;;10.10;85.90;;;;;;4673211;30;20046;-73
2021/01/29 14:04:54;;;;;;;35.35;20.98;;;10.20;85.40;;;;;;4675099;30;20409;-73
2021/01/29 14:07:21;;;;;;;31.13;20.80;;;10.30;85.20;;;;;;4689161;30;20270;-73
2021/01/29 14:09:48;;;;;;;;;;;10.40;84.70;;;;;;4690194;30;20034;-73
2021/01/29 14:12:38;;;;;;;24.70;17.63;;;10.40;84.30;;;;;;4699792;30;19970;-73
2021/01/29 14:15:23;;;;;;;31.42;19.10;;;10.40;84.80;;;;;;4723837;30;20415;-74
2021/01/29 14:18:26;;;;;;;30.90;18.83;;;10.50;84.50;;;;;;4724478;30;20033;-73
2021/01/29 14:21:13;;;;;;;32.78;19.55;;;10.50;84.50;;;;;;4707270;30;20080;-73
2021/01/29 14:24:08;;;;;;;28.02;17.15;;;10.50;84.70;;;;;;4722617;30;20129;-73
2021/01/29 14:27:09;;;;;;;29.27;19.55;;;10.60;84.50;;;;;;4666856;30;20065;-74
2021/01/29 14:29:49;;;;;;;34.05;19.80;;;10.50;84.90;;;;;;4712869;30;20168;-73
2021/01/29 14:32:39;;;;;;;32.33;20.52;;;10.50;85.20;;;;;;4703515;30;20048;-73
2021/01/29 14:35:29;;;;;;;29.15;18.60;;;10.70;85.20;;;;;;4701345;30;20029;-74
2021/01/29 14:38:11;;;;;;;29.23;19.25;;;10.70;85.10;;;;;;4699854;30;20052;-73
2021/01/29 14:41:14;;;;;;;29.13;18.98;;;10.80;85.10;;;;;;4716304;30;20360;-73
2021/01/29 14:43:46;;;;;;;30.23;18.63;;;10.90;85.10;;;;;;4671817;30;20058;-74
2021/01/29 14:46:34;;;;;;;28.10;17.52;;;11.00;84.70;;;;;;4672029;30;20089;-73
2021/01/29 14:49:37;;;;;;;31.55;16.98;;;11.10;84.60;;;;;;4658673;30;20050;-73
2021/01/29 14:52:13;;;;;;;30.50;18.90;;;11.20;84.60;;;;;;4672495;30;20030;-74
2021/01/29 14:55:03;;;;;;;32.40;18.52;;;11.30;84.40;;;;;;4672024;30;20046;-74
2021/01/29 14:57:43;;;;;;;35.15;18.23;;;11.30;84.50;;;;;;4658324;30;20110;-73
2021/01/29 15:00:18;;;;;;;36.65;20.00;;;11.40;84.30;;;;;;4657626;30;20042;-74
2021/01/29 15:02:55;;;;;;;31.75;16.75;;;11.40;84.10;;;;;;4679497;30;20060;-74
2021/01/29 15:05:43;;;;;;;33.35;16.33;;;11.40;84.00;;;;;;4706426;30;20318;-73
2021/01/29 15:08:26;;;;;;;28.02;16.48;;;11.40;84.30;;;;;;4690069;30;20105;-73
2021/01/29 15:11:19;;;;;;;32.30;16.67;;;11.40;84.30;;;;;;4692819;30;20041;-74
2021/01/29 15:13:56;;;;;;;26.50;16.58;;;11.50;84.40;;;;;;4693268;30;20066;-74
2021/01/29 15:16:37;;;;;;;11.85;8.02;;;11.60;84.30;;;;;;4678806;30;20117;-74
2021/01/29 15:19:20;;;;;;;18.77;9.23;;;11.50;84.10;;;;;;4692860;30;20429;-73
2021/01/29 15:21:54;;;;;;;12.18;7.72;;;11.60;84.30;;;;;;4727961;30;20037;-76
2021/01/29 15:24:35;;;;;;;5.07;2.78;;;11.70;83.70;;;;;;4712768;30;20177;-74
2021/01/29 15:27:23;;;;;;;4.82;2.53;;;11.70;82.30;;;;;;4732761;30;20052;-74
2021/01/29 15:30:04;;;;;;;2.35;1.40;;;11.90;81.70;;;;;;4658446;30;20053;-73
2021/01/29 15:32:34;;;;;;;1.95;1.00;;;12.00;80.60;;;;;;4658430;30;20197;-74
2021/01/29 15:35:21;;;;;;;2.80;1.40;;;12.10;78.80;;;;;;4658506;30;20050;-74
2021/01/29 15:37:56;;;;;;;4.43;1.50;;;12.20;77.30;;;;;;4658697;30;20360;-74
2021/01/29 15:40:30;;;;;;;1.95;1.00;;;12.20;77.10;;;;;;4658863;30;20078;-74
2021/01/29 15:42:58;;;;;;;6.68;1.13;;;12.30;76.80;;;;;;4658343;30;20039;-74
2021/01/29 15:45:44;;;;;;;2.30;1.50;;;12.30;75.70;;;;;;4658673;30;20126;-74
2021/01/29 15:48:12;;;;;;;3.20;1.80;;;12.40;75.30;;;;;;4678520;30;20057;-74
2021/01/29 15:51:14;;;;;;;3.20;1.77;;;12.60;75.00;;;;;;4684317;30;20168;-74
2021/01/29 15:53:50;;;;;;;3.03;1.50;;;12.60;74.00;;;;;;4692833;30;20072;-74
2021/01/29 15:56:27;;;;;;;14.65;10.15;;;12.60;72.40;;;;;;4692842;30;20056;-74
2021/01/29 15:58:55;;;;;;;14.73;8.60;;;12.80;72.70;;;;;;4675189;30;20113;-74
2021/01/29 16:01:32;;;;;;;6.90;3.97;;;12.50;70.60;;;;;;4679450;30;20117;-75
2021/01/29 16:03:58;;;;;;;5.07;2.00;;;12.70;71.90;;;;;;4680912;30;20101;-75
2021/01/29 16:06:37;;;;;;;2.78;1.10;;;12.70;70.10;;;;;;4705106;30;20048;-74
2021/01/29 16:09:28;;;;;;;2.42;1.10;;;12.90;70.40;;;;;;4747878;30;20208;-74
2021/01/29 16:11:55;;;;;;;4.68;1.05;;;12.90;69.20;;;;;;4754658;30;20074;-74
2021/01/29 16:14:27;;;;;;;3.40;1.23;;;12.80;67.80;;;;;;4763016;30;20035;-75
2021/01/29 16:17:13;;;;;;;2.15;0.90;;;12.70;67.50;;;;;;4755005;30;20033;-74
2021/01/29 16:19:41;;;;;;;2.33;0.97;;;12.60;66.70;;;;;;4756124;30;20047;-74
2021/01/29 16:22:09;;;;;;;2.25;1.10;;;12.80;66.70;;;;;;4746730;30;20088;-74
2021/01/29 16:24:45;;;;;;;1.98;0.73;;;12.90;66.50;;;;;;4734563;30;20100;-74
2021/01/29 16:27:17;;;;;;;1.80;0.80;;;12.80;65.50;;;;;;4727011;30;20040;-75
2021/01/29 16:29:44;;;;;;;2.30;0.85;;;12.80;65.40;;;;;;4752738;30;20090;-75
2021/01/29 16:32:13;;;;;;;4.15;0.80;;;12.90;65.60;;;;;;4729627;30;20074;-74
2021/01/29 16:34:40;;;;;;;2.05;0.63;;;13.00;64.90;;;;;;4772466;30;20028;-74
2021/01/29 16:37:16;;;;;;;3.53;0.82;;;13.00;65.10;;;;;;4750174;30;20028;-74
2021/01/29 16:39:44;;;;;;;2.85;1.23;;;12.90;64.50;;;;;;4749792;30;20036;-74
2021/01/29 16:42:26;;;;;;;4.25;1.13;;;13.00;63.90;;;;;;4740643;30;20031;-75
2021/01/29 16:45:19;;;;;;;5.22;1.27;;;13.00;63.90;;;;;;4765321;30;20042;-74
2021/01/29 16:47:56;;;;;;;10.45;2.63;;;13.10;63.60;;;;;;4684706;30;20045;-75
2021/01/29 16:50:44;;;;;;;6.88;2.95;;;13.10;63.70;;;;;;4705810;30;20061;-74
2021/01/29 16:53:27;;;;;;;3.03;1.60;;;13.00;63.60;;;;;;4703682;30;20253;-75
2021/01/29 16:56:08;;;;;;;5.32;1.90;;;13.00;63.70;;;;;;4672158;30;20079;-74
2021/01/29 16:58:37;;;;;;;8.02;2.83;;;13.00;63.70;;;;;;4676481;30;20104;-74
2021/01/29 17:01:21;;;;;;;6.13;2.40;;;13.00;64.00;;;;;;4690514;30;20037;-75
2021/01/29 17:03:51;;;;;;;7.53;2.75;;;13.00;64.50;;;;;;4693928;30;20111;-73
2021/01/29 17:06:21;;;;;;;3.22;1.90;;;13.00;65.10;;;;;;4680027;30;20109;-74
2021/01/29 17:08:48;;;;;;;5.35;2.15;;;13.00;65.20;;;;;;4690692;30;20302;-74
2021/01/29 17:11:16;;;;;;;;;;;12.70;64.80;;;;;;4676567;30;20038;-74
2021/01/29 17:13:43;;;;;;;2.65;1.30;;;12.60;65.60;;;;;;4690881;30;19974;-74
2021/01/29 17:16:22;;;;;;;4.55;2.00;;;12.60;65.50;;;;;;4690605;30;20368;-74
2021/01/29 17:18:51;;;;;;;1.85;1.00;;;12.40;65.90;;;;;;4691940;30;20057;-74
2021/01/29 17:21:17;;;;;;;2.90;1.00;;;12.10;66.80;;;;;;4676155;30;20038;-73
2021/01/29 17:23:43;;;;;;;2.90;1.50;;;12.20;66.90;;;;;;4702345;30;20115;-74
2021/01/29 17:26:17;;;;;;;2.97;1.13;;;12.30;67.30;;;;;;4741091;30;20025;-75
2021/01/29 17:28:52;;;;;;;4.53;1.48;;;12.40;67.40;;;;;;4759584;30;20320;-74
2021/01/29 17:31:20;;;;;;;4.38;1.30;;;12.30;67.40;;;;;;4748343;30;20043;-74
2021/01/29 17:33:52;;;;;;;4.70;1.50;;;12.30;67.10;;;;;;4761937;30;20082;-75
2021/01/29 17:36:29;;;;;;;6.03;1.85;;;12.40;67.40;;;;;;4746220;30;20358;-74
2021/01/29 17:39:07;;;;;;;4.28;1.48;;;12.50;67.30;;;;;;4744963;30;20028;-74
2021/01/29 17:41:34;;;;;;;4.47;1.38;;;12.40;67.00;;;;;;4761365;30;20038;-74
2021/01/29 17:44:14;;;;;;;5.17;1.63;;;12.50;67.40;;;;;;4752750;30;20308;-74
2021/01/29 17:46:41;;;;;;;2.92;1.30;;;12.50;66.60;;;;;;4751686;30;20118;-74
2021/01/29 17:49:18;;;;;;;5.03;1.80;;;12.60;66.70;;;;;;4750918;30;20034;-75